createdAt,value
2018-09-23T00:00:03.506Z,99619.78
2018-09-23T00:02:33.823Z,99612.28
2018-09-23T00:05:05.262Z,99607.64
2018-09-23T00:07:35.994Z,99604.61
2018-09-23T00:10:08.116Z,99601.91
2018-09-23T00:12:39.174Z,99603.29
2018-09-23T00:15:10.045Z,99590.44
2018-09-23T00:17:40.192Z,99587.68
2018-09-23T00:20:10.578Z,99582.34
2018-09-23T00:22:40.587Z,99577.75
2018-09-23T00:25:11.960Z,99576.11
2018-09-23T00:27:42.126Z,99570.84
2018-09-23T00:30:14.344Z,99564.72
2018-09-23T00:32:44.431Z,99563.02
2018-09-23T00:35:15.302Z,99564.66
2018-09-23T00:37:45.759Z,99565.98
2018-09-23T00:40:15.776Z,99568.20
2018-09-23T00:42:46.196Z,99560.93
2018-09-23T00:45:17.553Z,99570.52
2018-09-23T00:47:47.973Z,99575.79
2018-09-23T00:50:17.892Z,99565.95
2018-09-23T00:52:48.759Z,99568.30
2018-09-23T00:55:18.956Z,99561.02
2018-09-23T00:57:49.025Z,99559.00
2018-09-23T01:00:19.358Z,99555.98
2018-09-23T01:02:49.720Z,99553.34
2018-09-23T01:05:20.296Z,99549.03
2018-09-23T01:07:51.404Z,99533.81
2018-09-23T01:10:21.364Z,99533.14
2018-09-23T01:12:53.232Z,99522.59
2018-09-23T01:15:23.961Z,99516.33
2018-09-23T01:17:55.423Z,99519.22
2018-09-23T01:20:25.365Z,99523.43
2018-09-23T01:22:55.837Z,99521.37
2018-09-23T01:25:26.229Z,99523.17
2018-09-23T01:27:57.109Z,99526.48
2018-09-23T01:30:28.216Z,99510.86
2018-09-23T01:32:58.414Z,99511.59
2018-09-23T01:35:29.562Z,99517.76
2018-09-23T01:38:00.461Z,99524.09
2018-09-23T01:40:30.416Z,99524.16
2018-09-23T01:43:00.221Z,99520.53
2018-09-23T01:45:30.568Z,99511.88
2018-09-23T01:48:00.903Z,99512.36
2018-09-23T01:50:30.965Z,99515.73
2018-09-23T01:53:03.170Z,99501.30
2018-09-23T01:55:36.450Z,99493.84
2018-09-23T01:58:07.259Z,99489.99
2018-09-23T02:00:38.515Z,99487.23
2018-09-23T02:03:08.658Z,99493.11
2018-09-23T02:05:39.061Z,99482.70
2018-09-23T02:08:08.907Z,99486.10
2018-09-23T02:10:38.686Z,99494.97
2018-09-23T02:13:08.937Z,99488.67
2018-09-23T02:15:38.979Z,99491.79
2018-09-23T02:18:09.022Z,99490.57
2018-09-23T02:20:39.548Z,99485.59
2018-09-23T02:23:10.278Z,99486.65
2018-09-23T02:25:40.989Z,99482.76
2018-09-23T02:28:11.526Z,99483.05
2018-09-23T02:30:41.623Z,99480.22
2018-09-23T02:33:11.769Z,99481.41
2018-09-23T02:35:42.495Z,99472.23
2018-09-23T02:38:12.623Z,99471.30
2018-09-23T02:40:43.182Z,99461.17
2018-09-23T02:43:13.361Z,99454.34
2018-09-23T02:45:43.614Z,99456.84
2018-09-23T02:48:14.521Z,99445.72
2018-09-23T02:50:44.785Z,99440.42
2018-09-23T02:53:14.921Z,99435.95
2018-09-23T02:55:45.210Z,99429.36
2018-09-23T02:58:15.628Z,99421.19
2018-09-23T03:00:45.562Z,99419.95
2018-09-23T03:03:17.089Z,99412.34
2018-09-23T03:05:47.363Z,99407.58
2018-09-23T03:08:17.448Z,99408.30
2018-09-23T03:10:47.417Z,99406.77
2018-09-23T03:13:17.893Z,99403.05
2018-09-23T03:15:48.974Z,99396.52
2018-09-23T03:18:20.188Z,99397.09
2018-09-23T03:20:51.895Z,99399.86
2018-09-23T03:23:24.167Z,99406.50
2018-09-23T03:25:54.521Z,99403.52
2018-09-23T03:28:24.986Z,99398.25
2018-09-23T03:30:54.841Z,99390.41
2018-09-23T03:33:25.285Z,99397.19
2018-09-23T03:35:55.443Z,99390.77
2018-09-23T03:38:28.060Z,99381.89
2018-09-23T03:40:59.779Z,99381.17
2018-09-23T03:43:30.294Z,99377.25
2018-09-23T03:46:00.987Z,99376.42
2018-09-23T03:48:34.773Z,99377.22
2018-09-23T03:51:06.132Z,99362.55
2018-09-23T03:53:37.579Z,99353.20
2018-09-23T03:56:07.875Z,99352.95
2018-09-23T03:58:37.839Z,99345.69
2018-09-23T04:01:08.728Z,99344.98
2018-09-23T04:03:39.985Z,99351.23
2018-09-23T04:06:11.038Z,99348.69
2018-09-23T04:08:41.480Z,99324.27
2018-09-23T04:11:11.653Z,99329.98
2018-09-23T04:13:41.944Z,99316.52
2018-09-23T04:16:12.411Z,99320.47
2018-09-23T04:18:42.464Z,99323.55
2018-09-23T04:21:12.756Z,99320.17
2018-09-23T04:23:43.609Z,99316.63
2018-09-23T04:26:14.315Z,99315.41
2018-09-23T04:28:44.539Z,99313.95
2018-09-23T04:31:15.383Z,99311.47
2018-09-23T04:33:45.878Z,99306.77
2018-09-23T04:36:16.836Z,99293.84
2018-09-23T04:38:47.138Z,99303.14
2018-09-23T04:41:18.256Z,99302.60
2018-09-23T04:43:48.507Z,99301.57
2018-09-23T04:46:20.027Z,99298.08
2018-09-23T04:48:50.195Z,99293.40
2018-09-23T04:51:21.491Z,99288.70
2018-09-23T04:53:51.640Z,99296.62
2018-09-23T04:56:23.074Z,99291.62
2018-09-23T04:58:53.471Z,99305.70
2018-09-23T05:01:24.936Z,99305.41
2018-09-23T05:03:55.289Z,99299.99
2018-09-23T05:06:25.163Z,99242.34
2018-09-23T05:08:56.026Z,99299.11
2018-09-23T05:11:26.395Z,99291.50
2018-09-23T05:13:56.275Z,99283.42
2018-09-23T05:16:27.313Z,99273.67
2018-09-23T05:18:57.529Z,99275.77
2018-09-23T05:21:27.994Z,99275.14
2018-09-23T05:23:59.434Z,99274.14
2018-09-23T05:26:29.676Z,99273.03
2018-09-23T05:29:00.004Z,99280.19
2018-09-23T05:31:30.462Z,99278.16
2018-09-23T05:34:00.496Z,99279.13
2018-09-23T05:36:30.601Z,99263.80
2018-09-23T05:39:01.288Z,99241.98
2018-09-23T05:41:32.711Z,99231.81
2018-09-23T05:44:03.575Z,99218.11
2018-09-23T05:46:34.730Z,99224.03
2018-09-23T05:49:05.431Z,99229.69
2018-09-23T05:51:36.643Z,99214.98
2018-09-23T05:54:08.150Z,99208.14
2018-09-23T05:56:38.591Z,99187.04
2018-09-23T05:59:11.878Z,99183.70
2018-09-23T06:01:56.742Z,99180.80
2018-09-23T06:04:30.936Z,99172.88
2018-09-23T06:07:02.935Z,99188.23
2018-09-23T06:09:33.226Z,99159.00
2018-09-23T06:12:03.154Z,99183.69
2018-09-23T06:14:34.415Z,99186.11
2018-09-23T06:17:05.550Z,99185.53
2018-09-23T06:19:47.182Z,99194.48
2018-09-23T06:22:22.656Z,99198.73
2018-09-23T06:24:53.763Z,99191.89
2018-09-23T06:27:26.987Z,99170.05
2018-09-23T06:30:00.891Z,99187.47
2018-09-23T06:32:32.321Z,99166.48
2018-09-23T06:35:09.000Z,99184.78
2018-09-23T06:37:40.531Z,99181.09
2018-09-23T06:40:17.926Z,99155.30
2018-09-23T06:42:47.786Z,99167.91
2018-09-23T06:45:21.201Z,99166.36
2018-09-23T06:47:51.592Z,99164.76
2018-09-23T06:50:23.904Z,99162.57
2018-09-23T06:52:55.368Z,99143.49
2018-09-23T06:55:26.528Z,99147.34
2018-09-23T06:57:56.837Z,99147.23
2018-09-23T07:00:28.342Z,99139.26
2018-09-23T07:02:59.294Z,99145.06
2018-09-23T07:05:31.308Z,99159.77
2018-09-23T07:08:03.939Z,99158.73
2018-09-23T07:10:34.212Z,99160.10
2018-09-23T07:13:04.392Z,99160.05
2018-09-23T07:15:37.687Z,99163.63
2018-09-23T07:18:08.253Z,99156.56
2018-09-23T07:20:39.442Z,99152.52
2018-09-23T07:23:09.796Z,99155.44
2018-09-23T07:25:39.973Z,99159.00
2018-09-23T07:28:14.085Z,99152.28
2018-09-23T07:30:48.824Z,99150.15
2018-09-23T07:33:20.828Z,99145.14
2018-09-23T07:35:54.533Z,99140.44
2018-09-23T07:38:26.660Z,99142.41
2018-09-23T07:40:57.782Z,99139.55
2018-09-23T07:43:29.817Z,99139.23
2018-09-23T07:45:59.713Z,99129.95
2018-09-23T07:48:33.979Z,99112.30
2018-09-23T07:51:04.633Z,99111.02
2018-09-23T07:53:34.773Z,99112.06
2018-09-23T07:56:05.526Z,99115.89
2018-09-23T07:58:35.539Z,99107.69
2018-09-23T08:01:19.691Z,99088.91
2018-09-23T08:03:53.513Z,99099.86
2018-09-23T08:06:31.000Z,99106.50
2018-09-23T08:09:01.081Z,99104.09
2018-09-23T08:11:39.804Z,99096.45
2018-09-23T08:14:12.784Z,99093.65
2018-09-23T08:16:43.878Z,99091.56
2018-09-23T08:19:17.225Z,99061.08
2018-09-23T08:21:56.171Z,99084.80
2018-09-23T08:24:39.388Z,99090.66
2018-09-23T08:27:10.497Z,99086.97
2018-09-23T08:29:45.465Z,99084.58
2018-09-23T08:32:20.181Z,99079.13
2018-09-23T08:34:52.218Z,99083.92
2018-09-23T08:37:22.413Z,99085.06
2018-09-23T08:39:54.290Z,99073.99
2018-09-23T08:42:25.469Z,99076.95
2018-09-23T08:44:56.403Z,99075.88
2018-09-23T08:47:29.381Z,99071.63
2018-09-23T08:49:59.675Z,99075.06
2018-09-23T08:52:31.590Z,99064.19
2018-09-23T08:55:02.042Z,99056.47
2018-09-23T08:57:33.260Z,99048.31
2018-09-23T09:00:04.373Z,99042.80
2018-09-23T09:02:35.650Z,99037.23
2018-09-23T09:05:07.711Z,99026.66
2018-09-23T09:07:40.706Z,99024.53
2018-09-23T09:10:14.042Z,99024.52
2018-09-23T09:12:45.505Z,99016.57
2018-09-23T09:15:16.902Z,99002.02
2018-09-23T09:17:47.796Z,98997.75
2018-09-23T09:20:19.968Z,98989.25
2018-09-23T09:22:51.211Z,98990.84
2018-09-23T09:25:23.406Z,98979.70
2018-09-23T09:27:56.861Z,98970.42
2018-09-23T09:30:28.237Z,98969.11
2018-09-23T09:32:58.204Z,98969.90
2018-09-23T09:35:30.840Z,98971.73
2018-09-23T09:38:01.361Z,98971.41
2018-09-23T09:40:31.737Z,98963.74
2018-09-23T09:43:05.217Z,98954.70
2018-09-23T09:45:36.502Z,98945.69
2018-09-23T09:48:06.922Z,98938.02
2018-09-23T09:50:37.676Z,98930.84
2018-09-23T09:53:09.347Z,98899.62
2018-09-23T09:55:39.433Z,98919.37
2018-09-23T09:58:12.346Z,98917.52
2018-09-23T10:00:42.934Z,98919.08
2018-09-23T10:03:16.491Z,98909.82
2018-09-23T10:05:46.626Z,98913.83
2018-09-23T10:08:19.085Z,98915.66
2018-09-23T10:10:49.630Z,98909.56
2018-09-23T10:13:20.104Z,98895.80
2018-09-23T10:15:50.746Z,98889.09
2018-09-23T10:18:20.955Z,98891.22
2018-09-23T10:20:53.143Z,98892.02
2018-09-23T10:23:27.034Z,98877.16
2018-09-23T10:26:00.026Z,98871.59
2018-09-23T10:28:32.608Z,98860.94
2018-09-23T10:31:04.679Z,98845.39
2018-09-23T10:33:35.055Z,98836.03
2018-09-23T10:36:06.911Z,98832.59
2018-09-23T10:38:37.227Z,98825.30
2018-09-23T10:41:10.106Z,98820.88
2018-09-23T10:43:41.132Z,98813.58
2018-09-23T10:46:16.752Z,98807.77
2018-09-23T10:48:49.656Z,98801.95
2018-09-23T10:51:19.925Z,98788.69
2018-09-23T10:53:49.978Z,98790.01
2018-09-23T10:56:21.491Z,98777.73
2018-09-23T10:58:51.900Z,98774.85
2018-09-23T11:01:23.306Z,98759.55
2018-09-23T11:03:53.884Z,98754.59
2018-09-23T11:06:24.349Z,98744.30
2018-09-23T11:08:54.847Z,98738.70
2018-09-23T11:11:25.159Z,98724.98
2018-09-23T11:13:56.014Z,98733.23
2018-09-23T11:16:26.074Z,98716.94
2018-09-23T11:18:56.934Z,98718.50
2018-09-23T11:21:28.251Z,98713.27
2018-09-23T11:24:02.409Z,98698.66
2018-09-23T11:26:35.090Z,98677.13
2018-09-23T11:29:06.881Z,98660.70
2018-09-23T11:31:37.321Z,98658.55
2018-09-23T11:34:08.823Z,98645.33
2018-09-23T11:36:43.644Z,98637.70
2018-09-23T11:39:15.488Z,98623.04
2018-09-23T11:41:45.469Z,98605.28
2018-09-23T11:44:15.946Z,98591.98
2018-09-23T11:46:47.758Z,98583.99
2018-09-23T11:49:19.602Z,98577.36
2018-09-23T11:51:50.396Z,98575.55
2018-09-23T11:54:20.882Z,98577.14
2018-09-23T11:56:51.948Z,98554.03
2018-09-23T11:59:22.765Z,98535.07
2018-09-23T12:01:53.425Z,98525.33
2018-09-23T12:04:23.483Z,98509.97
2018-09-23T12:06:54.578Z,98494.12
2018-09-23T12:09:26.703Z,98485.76
2018-09-23T12:12:00.049Z,98476.22
2018-09-23T12:14:32.132Z,98448.97
2018-09-23T12:17:06.922Z,98443.75
2018-09-23T12:19:39.013Z,98428.88
2018-09-23T12:22:10.653Z,98413.24
2018-09-23T12:24:41.114Z,98395.73
2018-09-23T12:27:13.898Z,98371.52
2018-09-23T12:29:45.827Z,98347.24
2018-09-23T12:32:17.727Z,98335.31
2018-09-23T12:34:48.912Z,98339.62
2018-09-23T12:37:20.850Z,98332.88
2018-09-23T12:39:52.793Z,98341.39
2018-09-23T12:42:25.404Z,98332.36
2018-09-23T12:44:58.255Z,98316.88
2018-09-23T12:47:32.973Z,98299.58
2018-09-23T12:50:06.664Z,98282.72
2018-09-23T12:52:50.278Z,98263.72
2018-09-23T12:55:23.964Z,98237.83
2018-09-23T12:57:57.425Z,98219.83
2018-09-23T13:00:30.923Z,98216.00
2018-09-23T13:03:02.982Z,98197.48
2018-09-23T13:05:35.454Z,98184.82
2018-09-23T13:08:08.145Z,98203.30
2018-09-23T13:10:40.578Z,98220.51
2018-09-23T13:13:12.202Z,98219.91
2018-09-23T13:15:49.899Z,98214.38
2018-09-23T13:18:23.145Z,98206.23
2018-09-23T13:20:55.506Z,98203.08
2018-09-23T13:23:29.236Z,98201.59
2018-09-23T13:26:03.062Z,98217.12
2018-09-23T13:28:36.994Z,98214.09
2018-09-23T13:31:09.853Z,98201.42
2018-09-23T13:33:41.215Z,98186.19
2018-09-23T13:36:18.141Z,98178.08
2018-09-23T13:38:49.699Z,98181.57
2018-09-23T13:41:24.991Z,98188.31
2018-09-23T13:43:57.486Z,98180.51
2018-09-23T13:46:30.187Z,98144.74
2018-09-23T13:49:02.188Z,98144.84
2018-09-23T13:51:33.699Z,98150.20
2018-09-23T13:54:06.312Z,98148.41
2018-09-23T13:56:40.801Z,98136.08
2018-09-23T13:59:11.835Z,98118.69
2018-09-23T14:01:43.954Z,98105.52
2018-09-23T14:04:19.052Z,98095.50
2018-09-23T14:06:51.844Z,98113.12
2018-09-23T14:09:22.158Z,98108.67
2018-09-23T14:11:52.541Z,98108.67
2018-09-23T14:14:23.483Z,98113.91
2018-09-23T14:16:56.148Z,98074.13
2018-09-23T14:19:27.544Z,98082.82
2018-09-23T14:21:58.648Z,98089.70
2018-09-23T14:24:29.313Z,98051.19
2018-09-23T14:27:01.577Z,98016.67
2018-09-23T14:29:34.470Z,98015.36
2018-09-23T14:32:07.456Z,98063.91
2018-09-23T14:34:39.943Z,98055.71
2018-09-23T14:37:10.676Z,98033.07
2018-09-23T14:39:43.521Z,98038.36
2018-09-23T14:42:16.045Z,98043.64
2018-09-23T14:44:47.464Z,98052.65
2018-09-23T14:47:18.704Z,98092.45
2018-09-23T14:49:49.854Z,98122.74
2018-09-23T14:52:21.069Z,98111.70
2018-09-23T14:54:51.918Z,98071.95
2018-09-23T14:57:25.159Z,98076.13
2018-09-23T15:00:03.067Z,98088.77
2018-09-23T15:02:29.789Z,98106.16
2018-09-23T15:04:59.737Z,98131.67
2018-09-23T15:07:31.751Z,98113.00
2018-09-23T15:10:03.315Z,98062.45
2018-09-23T15:12:39.605Z,98074.05
2018-09-23T15:15:11.159Z,98138.27
2018-09-23T15:17:43.753Z,98152.47
2018-09-23T15:20:15.453Z,98164.85
2018-09-23T15:22:45.960Z,98186.71
2018-09-23T15:25:17.958Z,98186.41
2018-09-23T15:28:05.175Z,98172.66
2018-09-23T15:30:35.769Z,98225.23
2018-09-23T15:33:06.274Z,98211.80
2018-09-23T15:35:38.958Z,98204.94
2018-09-23T15:38:09.501Z,98194.66
2018-09-23T15:40:39.863Z,98134.42
2018-09-23T15:43:10.564Z,98081.55
2018-09-23T15:45:41.690Z,98046.59
2018-09-23T15:48:12.126Z,98037.66
2018-09-23T15:50:42.427Z,98029.77
2018-09-23T15:53:13.153Z,98089.19
2018-09-23T15:55:43.683Z,98124.94
2018-09-23T15:58:15.268Z,98127.59
2018-09-23T16:00:47.217Z,98125.48
2018-09-23T16:03:17.891Z,98160.20
2018-09-23T16:05:47.971Z,98128.65
2018-09-23T16:08:18.551Z,98022.67
2018-09-23T16:10:49.465Z,98036.34
2018-09-23T16:13:21.561Z,98074.24
2018-09-23T16:15:52.260Z,98115.54
2018-09-23T16:18:22.646Z,98145.28
2018-09-23T16:20:53.113Z,98155.27
2018-09-23T16:23:23.079Z,98195.50
2018-09-23T16:25:57.080Z,98234.14
2018-09-23T16:28:27.658Z,98261.67
2018-09-23T16:30:58.203Z,98272.41
2018-09-23T16:33:28.469Z,98319.42
2018-09-23T16:35:58.968Z,98337.24
2018-09-23T16:38:33.840Z,98274.58
2018-09-23T16:41:05.862Z,98267.83
2018-09-23T16:43:37.181Z,98313.34
2018-09-23T16:46:09.021Z,98312.79
2018-09-23T16:48:41.250Z,98268.66
2018-09-23T16:51:15.904Z,98295.46
2018-09-23T16:53:47.323Z,98370.06
2018-09-23T16:56:18.674Z,98401.17
2018-09-23T16:58:51.571Z,98381.97
2018-09-23T17:01:24.178Z,98371.50
2018-09-23T17:03:55.521Z,98415.09
2018-09-23T17:06:27.095Z,98462.40
2018-09-23T17:08:58.649Z,98499.31
2018-09-23T17:11:31.629Z,98493.78
2018-09-23T17:14:03.809Z,98462.55
2018-09-23T17:16:34.646Z,98497.96
2018-09-23T17:19:05.534Z,98560.20
2018-09-23T17:21:36.726Z,98579.61
2018-09-23T17:24:10.953Z,98574.88
2018-09-23T17:26:41.475Z,98526.23
2018-09-23T17:29:12.550Z,98498.78
2018-09-23T17:31:45.092Z,98521.32
2018-09-23T17:34:15.919Z,98548.50
2018-09-23T17:36:46.265Z,98535.05
2018-09-23T17:39:16.348Z,98543.30
2018-09-23T17:41:46.976Z,98494.42
2018-09-23T17:44:18.012Z,98571.62
2018-09-23T17:46:48.911Z,98598.59
2018-09-23T17:49:22.562Z,98697.64
2018-09-23T17:51:53.997Z,98721.66
2018-09-23T17:54:24.319Z,98718.03
2018-09-23T17:56:56.660Z,98679.89
2018-09-23T17:59:29.657Z,98651.56
2018-09-23T18:02:03.216Z,98624.02
2018-09-23T18:04:41.204Z,98608.25
2018-09-23T18:07:17.501Z,98636.61
2018-09-23T18:09:50.163Z,98623.34
2018-09-23T18:12:22.291Z,98650.61
2018-09-23T18:14:55.382Z,98613.91
2018-09-23T18:17:25.822Z,98717.44
2018-09-23T18:19:57.792Z,98754.56
2018-09-23T18:22:29.740Z,98824.21
2018-09-23T18:25:01.675Z,98840.45
2018-09-23T18:27:31.861Z,98841.36
2018-09-23T18:30:02.773Z,98813.61
2018-09-23T18:32:35.298Z,98802.77
2018-09-23T18:35:06.582Z,98857.59
2018-09-23T18:37:37.313Z,98863.36
2018-09-23T18:40:09.091Z,98861.61
2018-09-23T18:42:39.442Z,98874.97
2018-09-23T18:45:13.545Z,98847.91
2018-09-23T18:47:44.167Z,98878.86
2018-09-23T18:50:15.509Z,98894.98
2018-09-23T18:52:45.531Z,98885.20
2018-09-23T18:55:20.993Z,98864.41
2018-09-23T18:57:51.445Z,98890.63
2018-09-23T19:00:21.661Z,98885.59
2018-09-23T19:02:52.977Z,98884.58
2018-09-23T19:05:22.900Z,98925.63
2018-09-23T19:07:52.668Z,98957.75
2018-09-23T19:10:22.933Z,98959.05
2018-09-23T19:12:57.911Z,98966.58
2018-09-23T19:15:29.612Z,98957.70
2018-09-23T19:18:01.286Z,98993.25
2018-09-23T19:20:31.359Z,98999.80
2018-09-23T19:23:10.053Z,99006.94
2018-09-23T19:25:40.063Z,99019.03
2018-09-23T19:28:11.910Z,99047.13
2018-09-23T19:30:43.151Z,99067.22
2018-09-23T19:33:13.811Z,99042.58
2018-09-23T19:35:44.158Z,99072.27
2018-09-23T19:38:15.306Z,99069.20
2018-09-23T19:40:45.894Z,99100.56
2018-09-23T19:43:17.066Z,99117.78
2018-09-23T19:45:47.004Z,99148.24
2018-09-23T19:48:18.054Z,99151.26
2018-09-23T19:50:48.741Z,99174.62
2018-09-23T19:53:18.935Z,99173.60
2018-09-23T19:55:49.948Z,99179.30
2018-09-23T19:58:20.570Z,99198.64
2018-09-23T20:00:50.599Z,99234.77
2018-09-23T20:03:21.242Z,99235.31
2018-09-23T20:05:52.138Z,99238.30
2018-09-23T20:08:22.257Z,99268.16
2018-09-23T20:10:55.146Z,99281.48
2018-09-23T20:13:28.460Z,99286.31
2018-09-23T20:15:58.925Z,99298.56
2018-09-23T20:18:29.557Z,99315.52
2018-09-23T20:21:01.024Z,99330.08
2018-09-23T20:23:31.424Z,99334.77
2018-09-23T20:26:02.353Z,99352.24
2018-09-23T20:28:32.986Z,99358.83
2018-09-23T20:31:04.205Z,99368.27
2018-09-23T20:33:38.026Z,99379.67
2018-09-23T20:36:09.162Z,99382.34
2018-09-23T20:38:39.229Z,99382.91
2018-09-23T20:41:09.103Z,99387.95
2018-09-23T20:43:40.155Z,99398.20
2018-09-23T20:46:10.733Z,99406.55
2018-09-23T20:48:40.527Z,99421.22
2018-09-23T20:51:10.756Z,99425.45
2018-09-23T20:53:40.826Z,99399.87
2018-09-23T20:56:12.565Z,99442.73
2018-09-23T20:58:43.971Z,99448.78
2018-09-23T21:01:15.793Z,99465.55
2018-09-23T21:03:46.698Z,99472.53
2018-09-23T21:06:16.868Z,99481.48
2018-09-23T21:08:46.825Z,99490.41
2018-09-23T21:11:18.161Z,99503.00
2018-09-23T21:13:48.358Z,99503.92
2018-09-23T21:16:18.191Z,99501.73
2018-09-23T21:18:48.058Z,99498.58
2018-09-23T21:21:19.031Z,99505.92
2018-09-23T21:23:49.297Z,99477.47
2018-09-23T21:26:19.348Z,99513.47
2018-09-23T21:28:49.538Z,99517.58
2018-09-23T21:31:19.462Z,99519.38
2018-09-23T21:33:49.290Z,99524.34
2018-09-23T21:36:19.597Z,99520.30
2018-09-23T21:38:49.539Z,99518.30
2018-09-23T21:41:19.962Z,99522.71
2018-09-23T21:43:50.298Z,99517.47
2018-09-23T21:46:20.114Z,99522.79
2018-09-23T21:48:51.168Z,99524.11
2018-09-23T21:51:21.366Z,99523.30
2018-09-23T21:53:51.244Z,99526.72
2018-09-23T21:56:21.089Z,99535.70
2018-09-23T21:58:51.783Z,99546.09
2018-09-23T22:01:24.411Z,99553.83
2018-09-23T22:03:55.076Z,99562.57
2018-09-23T22:06:24.976Z,99573.66
2018-09-23T22:08:55.434Z,99571.58
2018-09-23T22:11:26.618Z,99576.31
2018-09-23T22:13:57.650Z,99580.63
2018-09-23T22:16:28.050Z,99589.67
2018-09-23T22:18:58.228Z,99592.59
2018-09-23T22:21:29.065Z,99593.31
2018-09-23T22:23:59.802Z,99593.09
2018-09-23T22:26:30.446Z,99604.36
2018-09-23T22:29:01.872Z,99616.82
2018-09-23T22:31:31.774Z,99637.23
2018-09-23T22:34:02.991Z,99650.57
2018-09-23T22:36:33.699Z,99661.53
2018-09-23T22:39:04.336Z,99668.66
2018-09-23T22:41:36.295Z,99664.72
2018-09-23T22:44:06.504Z,99670.32
2018-09-23T22:46:36.931Z,99666.83
2018-09-23T22:49:07.719Z,99671.09
2018-09-23T22:51:37.742Z,99683.66
2018-09-23T22:54:08.228Z,99675.41
2018-09-23T22:56:38.325Z,99687.68
2018-09-23T22:59:09.069Z,99690.45
2018-09-23T23:01:39.336Z,99698.20
2018-09-23T23:04:09.588Z,99704.64
2018-09-23T23:06:40.169Z,99710.41
2018-09-23T23:09:10.974Z,99712.23
2018-09-23T23:11:40.969Z,99720.70
2018-09-23T23:14:11.988Z,99726.25
2018-09-23T23:16:41.749Z,99737.83
2018-09-23T23:19:11.624Z,99742.16
2018-09-23T23:21:41.686Z,99748.22
2018-09-23T23:24:11.901Z,99750.03
2018-09-23T23:26:41.777Z,99765.84
2018-09-23T23:29:12.198Z,99774.56
2018-09-23T23:31:42.100Z,99779.38
2018-09-23T23:34:12.121Z,99782.38
2018-09-23T23:36:42.003Z,99794.25
2018-09-23T23:39:12.833Z,99798.98
2018-09-23T23:41:43.218Z,99771.39
2018-09-23T23:44:14.775Z,99786.55
2018-09-23T23:46:44.916Z,99818.91
2018-09-23T23:49:15.051Z,99829.59
2018-09-23T23:51:45.225Z,99834.01
2018-09-23T23:54:17.324Z,99840.11
2018-09-23T23:56:47.849Z,99841.63
2018-09-23T23:59:18.372Z,99853.54
